createdAt,value
2023-12-03T00:02:05.823Z,98254.25
2023-12-03T00:07:08.773Z,98254.09
2023-12-03T00:12:11.139Z,98248.25
2023-12-03T00:17:13.521Z,98262.91
2023-12-03T00:22:16.065Z,98256.97
2023-12-03T00:27:19.369Z,98260.25
2023-12-03T00:32:21.689Z,98260.25
2023-12-03T00:37:24.302Z,98262.72
2023-12-03T00:42:26.542Z,98265.19
2023-12-03T00:47:28.675Z,98270.09
2023-12-03T00:52:31.063Z,98282.72
2023-12-03T00:57:33.825Z,98281.19
2023-12-03T01:02:37.152Z,98282.09
2023-12-03T01:07:39.408Z,98287.34
2023-12-03T01:12:41.644Z,98288.34
2023-12-03T01:17:44.118Z,98297.88
2023-12-03T01:22:46.643Z,98292.97
2023-12-03T01:27:48.902Z,98304.22
2023-12-03T01:32:51.040Z,98306.94
2023-12-03T01:37:53.121Z,98312.94
2023-12-03T01:42:55.367Z,98319.03
2023-12-03T01:47:57.721Z,98323.38
2023-12-03T01:52:59.762Z,98327.75
2023-12-03T01:58:03.259Z,98337.28
2023-12-03T02:03:05.485Z,98340.00
2023-12-03T02:08:07.721Z,98350.16
2023-12-03T02:13:11.308Z,98351.06
2023-12-03T02:18:13.880Z,98352.63
2023-12-03T02:23:16.402Z,98359.28
2023-12-03T02:28:19.619Z,98356.47
2023-12-03T02:33:22.289Z,98347.94
2023-12-03T02:38:24.373Z,98346.13
2023-12-03T02:43:26.587Z,98345.31
2023-12-03T02:48:28.836Z,98349.41
2023-12-03T02:53:31.711Z,98360.50
2023-12-03T02:58:34.699Z,98359.09
2023-12-03T03:03:37.078Z,98361.81
2023-12-03T03:08:39.739Z,98366.25
2023-12-03T03:13:41.730Z,98382.34
2023-12-03T03:18:43.786Z,98376.44
2023-12-03T03:23:45.974Z,98383.25
2023-12-03T03:28:52.029Z,98399.41
2023-12-03T03:33:55.992Z,98394.34
2023-12-03T03:38:58.293Z,98400.16
2023-12-03T03:44:00.362Z,98402.63
2023-12-03T03:49:05.608Z,98405.81
2023-12-03T03:54:07.955Z,98417.56
2023-12-03T03:59:09.953Z,98416.66
2023-12-03T04:04:13.428Z,98418.22
2023-12-03T04:09:15.714Z,98417.31
2023-12-03T04:14:19.640Z,98416.41
2023-12-03T04:19:21.727Z,98414.59
2023-12-03T04:24:23.853Z,98416.88
2023-12-03T04:29:26.002Z,98420.09
2023-12-03T04:34:28.431Z,98430.09
2023-12-03T04:39:31.297Z,98433.22
2023-12-03T04:44:33.510Z,98427.78
2023-12-03T04:49:35.714Z,98435.97
2023-12-03T04:54:37.840Z,98440.16
2023-12-03T04:59:40.258Z,98446.00
2023-12-03T05:04:42.528Z,98448.53
2023-12-03T05:09:44.599Z,98450.00
2023-12-03T05:14:46.714Z,98450.75
2023-12-03T05:19:48.746Z,98460.84
2023-12-03T05:24:51.958Z,98468.41
2023-12-03T05:29:54.369Z,98475.88
2023-12-03T05:34:56.580Z,98481.78
2023-12-03T05:39:59.825Z,98479.97
2023-12-03T05:45:01.853Z,98479.88
2023-12-03T05:50:05.926Z,98485.97
2023-12-03T05:55:08.793Z,98491.97
2023-12-03T06:00:12.194Z,98498.97
2023-12-03T06:05:15.176Z,98495.75
2023-12-03T06:10:17.729Z,98507.59
2023-12-03T06:15:19.996Z,98505.06
2023-12-03T06:20:22.200Z,98515.41
2023-12-03T06:25:25.010Z,98511.94
2023-12-03T06:30:27.135Z,98526.25
2023-12-03T06:35:29.460Z,98527.47
2023-12-03T06:40:31.537Z,98529.75
2023-12-03T06:45:34.242Z,98542.41
2023-12-03T06:50:37.361Z,98552.44
2023-12-03T06:55:39.563Z,98561.81
2023-12-03T07:00:42.076Z,98565.25
2023-12-03T07:05:44.341Z,98577.75
2023-12-03T07:10:46.485Z,98582.75
2023-12-03T07:15:48.819Z,98587.13
2023-12-03T07:20:51.307Z,98584.47
2023-12-03T07:25:53.577Z,98584.41
2023-12-03T07:30:55.739Z,98584.81
2023-12-03T07:35:57.999Z,98589.81
2023-12-03T07:41:01.277Z,98594.00
2023-12-03T07:46:03.444Z,98596.47
2023-12-03T07:51:11.089Z,98589.72
2023-12-03T07:56:13.242Z,98596.13
2023-12-03T08:01:15.453Z,98594.50
2023-12-03T08:06:17.559Z,98599.41
2023-12-03T08:11:21.044Z,98603.53
2023-12-03T08:16:23.195Z,98601.47
2023-12-03T08:21:25.376Z,98617.31
2023-12-03T08:26:28.326Z,98617.06
2023-12-03T08:31:30.399Z,98624.28
2023-12-03T08:36:32.801Z,98623.28
2023-12-03T08:41:38.050Z,98625.03
2023-12-03T08:46:40.277Z,98635.22
2023-12-03T08:51:42.514Z,98626.66
2023-12-03T08:56:47.721Z,98626.66
2023-12-03T09:01:51.598Z,98629.03
2023-12-03T09:06:53.791Z,98632.41
2023-12-03T09:11:55.947Z,98642.63
2023-12-03T09:16:59.707Z,98638.91
2023-12-03T09:22:01.879Z,98639.63
2023-12-03T09:27:04.233Z,98637.00
2023-12-03T09:32:06.478Z,98645.47
2023-12-03T09:37:09.683Z,98647.94
2023-12-03T09:42:18.382Z,98634.94
2023-12-03T09:47:25.489Z,98628.91
2023-12-03T09:52:31.109Z,98632.03
2023-12-03T09:57:36.612Z,98627.44
2023-12-03T10:02:39.177Z,98633.13
2023-12-03T10:07:41.927Z,98631.03
2023-12-03T10:12:45.128Z,98633.84
2023-12-03T10:17:47.681Z,98635.75
2023-12-03T10:22:50.890Z,98630.94
2023-12-03T10:27:57.535Z,98632.69
2023-12-03T10:33:00.565Z,98638.34
2023-12-03T10:38:09.622Z,98631.31
2023-12-03T10:43:14.981Z,98640.97
2023-12-03T10:48:17.251Z,98634.97
2023-12-03T10:53:21.057Z,98648.44
2023-12-03T10:58:23.310Z,98644.25
2023-12-03T11:03:35.934Z,98652.22
2023-12-03T11:08:39.350Z,98654.31
2023-12-03T11:13:46.967Z,98666.00
2023-12-03T11:19:06.888Z,98661.72
2023-12-03T11:24:30.396Z,98665.25
2023-12-03T11:29:51.577Z,98674.38
2023-12-03T11:35:00.754Z,98675.47
2023-12-03T11:40:14.154Z,98675.47
2023-12-03T11:45:27.819Z,98676.66
2023-12-03T11:50:31.680Z,98681.75
2023-12-03T11:55:37.577Z,98674.00
2023-12-03T12:00:41.065Z,98659.69
2023-12-03T12:05:54.408Z,98674.09
2023-12-03T12:10:57.429Z,98666.44
2023-12-03T12:15:59.980Z,98669.44
2023-12-03T12:21:12.214Z,98670.91
2023-12-03T12:26:15.191Z,98672.81
2023-12-03T12:31:21.053Z,98677.28
2023-12-03T12:36:23.249Z,98674.09
2023-12-03T12:41:25.465Z,98673.09
2023-12-03T12:46:27.554Z,98673.09
2023-12-03T12:51:29.698Z,98676.81
2023-12-03T12:56:32.468Z,98680.28
2023-12-03T13:01:34.774Z,98679.19
2023-12-03T13:06:36.930Z,98680.94
2023-12-03T13:11:39.045Z,98685.56
2023-12-03T13:16:42.340Z,98687.38
2023-12-03T13:21:45.727Z,98684.28
2023-12-03T13:26:49.157Z,98687.91
2023-12-03T13:31:51.309Z,98693.91
2023-12-03T13:36:53.820Z,98691.38
2023-12-03T13:41:55.875Z,98695.66
2023-12-03T13:46:58.731Z,98697.28
2023-12-03T13:52:00.832Z,98696.66
2023-12-03T13:57:03.079Z,98695.81
2023-12-03T14:02:06.678Z,98704.38
2023-12-03T14:07:09.422Z,98704.38
2023-12-03T14:12:12.493Z,98698.53
2023-12-03T14:17:17.253Z,98702.00
2023-12-03T14:22:19.311Z,98720.59
2023-12-03T14:27:21.984Z,98721.16
2023-12-03T14:32:24.054Z,98721.16
2023-12-03T14:37:26.169Z,98721.16
2023-12-03T14:42:29.364Z,98729.00
2023-12-03T14:47:31.837Z,98745.94
2023-12-03T14:52:33.984Z,98747.69
2023-12-03T14:57:36.639Z,98745.28
2023-12-03T15:02:38.886Z,98738.47
2023-12-03T15:07:41.025Z,98748.66
2023-12-03T15:12:43.175Z,98754.50
2023-12-03T15:17:45.415Z,98761.44
2023-12-03T15:22:47.528Z,98767.44
2023-12-03T15:27:49.683Z,98777.66
2023-12-03T15:32:52.131Z,98774.34
2023-12-03T15:37:55.855Z,98777.72
2023-12-03T15:42:58.214Z,98786.03
2023-12-03T15:48:00.583Z,98787.03
2023-12-03T15:53:03.016Z,98804.06
2023-12-03T15:58:05.130Z,98798.06
2023-12-03T16:03:07.856Z,98797.88
2023-12-03T16:08:09.943Z,98795.34
2023-12-03T16:13:12.387Z,98798.78
2023-12-03T16:18:14.630Z,98801.34
2023-12-03T16:23:17.039Z,98808.09
2023-12-03T16:28:19.020Z,98812.22
2023-12-03T16:33:21.457Z,98811.97
2023-12-03T16:38:23.705Z,98817.97
2023-12-03T16:43:25.872Z,98834.28
2023-12-03T16:48:28.134Z,98841.09
2023-12-03T16:53:30.465Z,98847.69
2023-12-03T16:58:33.100Z,98855.44
2023-12-03T17:03:35.100Z,98858.97
2023-12-03T17:08:39.734Z,98853.69
2023-12-03T17:13:41.807Z,98863.75
2023-12-03T17:18:45.869Z,98861.19
2023-12-03T17:23:48.078Z,98858.56
2023-12-03T17:28:50.159Z,98856.91
2023-12-03T17:33:52.274Z,98862.09
2023-12-03T17:38:54.352Z,98844.22
2023-12-03T17:43:56.492Z,98855.19
2023-12-03T17:48:58.742Z,98854.28
2023-12-03T17:54:00.852Z,98859.28
2023-12-03T17:59:02.918Z,98857.56
2023-12-03T18:04:05.102Z,98865.22
2023-12-03T18:09:08.867Z,98866.13
2023-12-03T18:14:11.245Z,98876.41
2023-12-03T18:19:13.897Z,98865.38
2023-12-03T18:24:16.059Z,98862.91
2023-12-03T18:29:18.377Z,98857.97
2023-12-03T18:34:20.480Z,98868.94
2023-12-03T18:39:23.775Z,98875.03
2023-12-03T18:44:28.085Z,98883.66
2023-12-03T18:49:31.251Z,98882.00
2023-12-03T18:54:35.618Z,98886.47
2023-12-03T18:59:38.513Z,98888.09
2023-12-03T19:04:40.678Z,98882.00
2023-12-03T19:09:42.913Z,98886.97
2023-12-03T19:14:44.939Z,98884.41
2023-12-03T19:19:47.045Z,98881.84
2023-12-03T19:24:49.278Z,98883.59
2023-12-03T19:29:51.538Z,98879.31
2023-12-03T19:34:53.679Z,98882.69
2023-12-03T19:39:56.717Z,98879.22
2023-12-03T19:44:58.841Z,98884.25
2023-12-03T19:50:01.001Z,98878.88
2023-12-03T19:55:06.189Z,98873.78
2023-12-03T20:00:08.907Z,98882.19
2023-12-03T20:05:16.129Z,98883.81
2023-12-03T20:10:18.479Z,98880.38
2023-12-03T20:15:25.351Z,98873.63
2023-12-03T20:20:31.002Z,98877.91
2023-12-03T20:25:34.405Z,98877.97
2023-12-03T20:30:36.604Z,98873.69
2023-12-03T20:35:38.962Z,98875.75
2023-12-03T20:40:41.041Z,98877.00
2023-12-03T20:45:43.174Z,98872.06
2023-12-03T20:50:45.201Z,98865.22
2023-12-03T20:55:47.387Z,98858.31
2023-12-03T21:00:49.598Z,98854.75
2023-12-03T21:05:51.844Z,98846.28
2023-12-03T21:10:53.963Z,98837.97
2023-12-03T21:15:56.033Z,98833.22
2023-12-03T21:20:58.120Z,98833.56
2023-12-03T21:26:00.175Z,98822.94
2023-12-03T21:31:02.348Z,98811.50
2023-12-03T21:36:05.369Z,98812.16
2023-12-03T21:41:07.975Z,98812.88
2023-12-03T21:46:10.427Z,98813.53
2023-12-03T21:51:13.096Z,98805.59
2023-12-03T21:56:15.452Z,98810.34
2023-12-03T22:01:17.698Z,98816.06
2023-12-03T22:06:20.952Z,98814.97
2023-12-03T22:11:23.236Z,98829.28
2023-12-03T22:16:25.526Z,98822.09
2023-12-03T22:21:27.772Z,98821.63
2023-12-03T22:26:29.943Z,98825.44
2023-12-03T22:31:32.154Z,98818.84
2023-12-03T22:36:34.342Z,98819.81
2023-12-03T22:41:36.889Z,98818.31
2023-12-03T22:46:39.138Z,98815.09
2023-12-03T22:51:41.291Z,98813.47
2023-12-03T22:56:43.889Z,98800.66
2023-12-03T23:01:46.155Z,98800.72
2023-12-03T23:06:48.362Z,98794.91
2023-12-03T23:11:50.754Z,98788.00
2023-12-03T23:16:53.035Z,98773.50
2023-12-03T23:21:55.124Z,98769.31
2023-12-03T23:27:03.283Z,98766.31
2023-12-03T23:32:12.508Z,98759.03
2023-12-03T23:37:16.714Z,98744.06
2023-12-03T23:42:18.914Z,98738.00
2023-12-03T23:47:21.062Z,98734.25
2023-12-03T23:52:23.213Z,98748.00
2023-12-03T23:57:25.693Z,98725.94
